createdAt,value
2018-05-23T00:02:01.208Z,90.50
2018-05-23T00:04:28.700Z,90.50
2018-05-23T00:06:56.192Z,90.60
2018-05-23T00:09:23.701Z,90.60
2018-05-23T00:11:51.219Z,90.70
2018-05-23T00:14:18.721Z,90.80
2018-05-23T00:16:46.973Z,90.90
2018-05-23T00:19:14.480Z,90.90
2018-05-23T00:21:42.755Z,90.70
2018-05-23T00:24:10.284Z,90.70
2018-05-23T00:26:37.787Z,90.80
2018-05-23T00:29:06.041Z,91.00
2018-05-23T00:31:33.559Z,91.00
2018-05-23T00:34:01.108Z,90.90
2018-05-23T00:36:28.580Z,91.00
2018-05-23T00:38:56.078Z,91.00
2018-05-23T00:41:23.571Z,91.20
2018-05-23T00:43:51.824Z,91.60
2018-05-23T00:46:19.328Z,91.20
2018-05-23T00:48:47.596Z,91.10
2018-05-23T00:51:15.880Z,91.40
2018-05-23T00:53:44.156Z,91.30
2018-05-23T00:56:11.648Z,91.30
2018-05-23T00:58:39.152Z,91.10
2018-05-23T01:01:06.661Z,91.30
2018-05-23T01:03:34.946Z,91.70
2018-05-23T01:06:03.213Z,92.00
2018-05-23T01:08:31.503Z,92.10
2018-05-23T01:10:59.773Z,92.00
2018-05-23T01:13:28.050Z,91.70
2018-05-23T01:15:56.324Z,91.70
2018-05-23T01:18:23.827Z,91.70
2018-05-23T01:20:51.334Z,92.30
2018-05-23T01:23:18.818Z,92.40
2018-05-23T01:25:46.327Z,92.00
2018-05-23T01:28:13.852Z,91.60
2018-05-23T01:30:42.119Z,92.10
2018-05-23T01:33:09.600Z,92.00
2018-05-23T01:35:37.873Z,92.30
2018-05-23T01:38:05.347Z,92.30
2018-05-23T01:40:33.591Z,92.00
2018-05-23T01:43:01.095Z,92.00
2018-05-23T01:45:29.355Z,91.80
2018-05-23T01:47:56.846Z,91.80
2018-05-23T01:50:24.357Z,91.50
2018-05-23T01:52:51.851Z,91.00
2018-05-23T01:55:19.349Z,91.40
2018-05-23T01:57:46.842Z,91.80
2018-05-23T02:00:14.331Z,92.40
2018-05-23T02:02:41.811Z,92.10
2018-05-23T02:05:10.071Z,92.40
2018-05-23T02:07:37.564Z,92.40
2018-05-23T02:10:05.831Z,92.30
2018-05-23T02:12:34.124Z,92.10
2018-05-23T02:15:02.368Z,92.20
2018-05-23T02:17:29.848Z,92.10
2018-05-23T02:19:57.346Z,92.20
2018-05-23T02:22:24.846Z,92.20
2018-05-23T02:24:52.351Z,92.30
2018-05-23T02:27:20.606Z,92.00
2018-05-23T02:29:48.102Z,92.00
2018-05-23T02:32:16.383Z,92.20
2018-05-23T02:34:44.638Z,92.30
2018-05-23T02:37:12.135Z,92.20
2018-05-23T02:39:39.651Z,92.00
2018-05-23T02:42:07.137Z,92.00
2018-05-23T02:44:34.638Z,92.30
2018-05-23T02:47:02.169Z,92.40
2018-05-23T02:49:29.676Z,92.20
2018-05-23T02:51:57.184Z,92.50
2018-05-23T02:54:24.707Z,92.50
2018-05-23T02:56:52.196Z,92.80
2018-05-23T02:59:19.690Z,92.60
2018-05-23T03:01:47.965Z,92.40
2018-05-23T03:04:16.219Z,92.40
2018-05-23T03:06:43.708Z,92.40
2018-05-23T03:09:11.976Z,92.20
2018-05-23T03:11:39.468Z,92.20
2018-05-23T03:14:07.719Z,92.30
2018-05-23T03:16:35.222Z,92.30
2018-05-23T03:19:02.734Z,92.20
2018-05-23T03:21:30.249Z,92.20
2018-05-23T03:23:57.748Z,92.50
2018-05-23T03:26:25.250Z,92.80
2018-05-23T03:28:53.529Z,93.00
2018-05-23T03:31:21.796Z,93.30
2018-05-23T03:33:49.289Z,93.30
2018-05-23T03:36:17.559Z,93.70
2018-05-23T03:38:45.816Z,93.90
2018-05-23T03:41:13.307Z,93.90
2018-05-23T03:43:41.750Z,94.10
2018-05-23T03:46:09.240Z,94.10
2018-05-23T03:48:36.721Z,94.20
2018-05-23T03:51:04.239Z,94.20
2018-05-23T03:53:31.724Z,94.20
2018-05-23T03:55:59.222Z,94.30
2018-05-23T03:58:26.734Z,94.30
2018-05-23T04:01:06.022Z,94.30
2018-05-23T04:03:45.558Z,94.30
2018-05-23T04:06:24.940Z,94.20
2018-05-23T04:08:52.467Z,93.90
2018-05-23T04:11:19.970Z,93.70
2018-05-23T04:13:47.468Z,93.70
2018-05-23T04:16:15.729Z,93.70
2018-05-23T04:18:43.246Z,93.70
2018-05-23T04:21:10.751Z,93.90
2018-05-23T04:23:39.040Z,94.10
2018-05-23T04:26:06.542Z,94.40
2018-05-23T04:28:34.045Z,94.10
2018-05-23T04:31:01.540Z,93.80
2018-05-23T04:33:29.810Z,93.60
2018-05-23T04:35:58.101Z,93.50
2018-05-23T04:38:26.351Z,93.30
2018-05-23T04:40:53.865Z,93.30
2018-05-23T04:43:21.361Z,93.30
2018-05-23T04:45:48.841Z,93.40
2018-05-23T04:48:16.343Z,93.40
2018-05-23T04:50:44.613Z,93.60
2018-05-23T04:53:12.889Z,93.80
2018-05-23T04:55:41.172Z,93.70
2018-05-23T04:58:09.451Z,93.40
2018-05-23T05:00:37.721Z,93.40
2018-05-23T05:03:05.245Z,93.40
2018-05-23T05:05:32.744Z,93.30
2018-05-23T05:08:00.237Z,93.60
2018-05-23T05:10:27.763Z,93.50
2018-05-23T05:12:55.262Z,92.80
2018-05-23T05:15:23.541Z,93.00
2018-05-23T05:17:51.804Z,92.80
2018-05-23T05:20:19.296Z,92.80
2018-05-23T05:22:46.796Z,92.90
2018-05-23T05:25:14.298Z,92.90
2018-05-23T05:27:42.555Z,92.10
2018-05-23T05:30:10.043Z,92.10
2018-05-23T05:32:37.564Z,92.20
2018-05-23T05:35:05.074Z,91.90
2018-05-23T05:37:33.348Z,91.30
2018-05-23T05:40:01.644Z,90.70
2018-05-23T05:42:29.915Z,91.00
2018-05-23T05:44:58.210Z,90.90
2018-05-23T05:47:25.712Z,91.20
2018-05-23T05:49:53.202Z,90.60
2018-05-23T05:52:20.731Z,90.80
2018-05-23T05:54:48.999Z,90.40
2018-05-23T05:57:16.512Z,90.40
2018-05-23T05:59:44.050Z,90.50
2018-05-23T06:02:11.542Z,89.60
2018-05-23T06:04:39.036Z,88.40
2018-05-23T06:07:06.563Z,87.70
2018-05-23T06:09:34.110Z,88.10
2018-05-23T06:12:01.592Z,87.50
2018-05-23T06:14:29.126Z,88.80
2018-05-23T06:16:56.625Z,88.60
2018-05-23T06:19:24.125Z,88.30
2018-05-23T06:21:51.627Z,89.60
2018-05-23T06:24:19.130Z,89.20
2018-05-23T06:26:47.405Z,89.00
2018-05-23T06:29:15.689Z,87.90
2018-05-23T06:31:43.940Z,86.40
2018-05-23T06:34:11.445Z,86.40
2018-05-23T06:36:39.735Z,88.00
2018-05-23T06:39:07.257Z,87.90
2018-05-23T06:41:34.760Z,86.80
2018-05-23T06:44:02.278Z,84.90
2018-05-23T06:46:29.770Z,83.60
2018-05-23T06:48:57.267Z,84.00
2018-05-23T06:51:24.787Z,85.40
2018-05-23T06:53:52.276Z,83.20
2018-05-23T06:56:19.796Z,84.90
2018-05-23T06:58:47.314Z,85.90
2018-05-23T07:01:14.812Z,85.90
2018-05-23T07:03:42.308Z,85.40
2018-05-23T07:06:10.579Z,83.90
2018-05-23T07:08:38.084Z,83.80
2018-05-23T07:11:05.627Z,83.40
2018-05-23T07:13:33.100Z,83.20
2018-05-23T07:16:00.608Z,83.20
2018-05-23T07:18:28.096Z,83.70
2018-05-23T07:20:55.601Z,84.40
2018-05-23T07:23:23.088Z,86.00
2018-05-23T07:25:50.657Z,85.70
2018-05-23T07:28:18.108Z,85.60
2018-05-23T07:30:45.602Z,85.40
2018-05-23T07:33:13.141Z,84.20
2018-05-23T07:35:40.628Z,85.50
2018-05-23T07:38:08.107Z,84.40
2018-05-23T07:40:35.607Z,84.30
2018-05-23T07:43:03.108Z,84.20
2018-05-23T07:45:30.640Z,85.40
2018-05-23T07:47:58.878Z,87.10
2018-05-23T07:50:26.363Z,87.10
2018-05-23T07:52:53.855Z,86.30
2018-05-23T07:55:21.367Z,85.10
2018-05-23T07:57:48.852Z,84.90
2018-05-23T08:00:16.341Z,86.20
2018-05-23T08:02:43.846Z,84.00
2018-05-23T08:05:11.352Z,84.40
2018-05-23T08:07:38.875Z,82.10
2018-05-23T08:10:06.391Z,81.60
2018-05-23T08:12:33.887Z,82.90
2018-05-23T08:15:01.383Z,83.30
2018-05-23T08:17:29.666Z,85.20
2018-05-23T08:19:57.937Z,85.90
2018-05-23T08:22:26.196Z,85.50
2018-05-23T08:24:53.714Z,85.40
2018-05-23T08:27:21.211Z,86.00
2018-05-23T08:29:48.741Z,84.60
2018-05-23T08:32:16.975Z,84.30
2018-05-23T08:34:44.471Z,84.20
2018-05-23T08:37:12.735Z,82.00
2018-05-23T08:39:40.990Z,80.80
2018-05-23T08:42:08.488Z,80.70
2018-05-23T08:44:36.786Z,80.40
2018-05-23T08:47:04.293Z,80.40
2018-05-23T08:49:31.793Z,80.30
2018-05-23T08:51:59.305Z,81.70
2018-05-23T08:54:26.803Z,80.90
2018-05-23T08:56:55.068Z,79.50
2018-05-23T08:59:22.568Z,79.30
2018-05-23T09:01:50.070Z,78.10
2018-05-23T09:04:17.578Z,80.00
2018-05-23T09:06:45.066Z,80.50
2018-05-23T09:09:12.563Z,78.50
2018-05-23T09:11:40.054Z,77.90
2018-05-23T09:14:07.541Z,78.50
2018-05-23T09:16:35.784Z,80.40
2018-05-23T09:19:03.297Z,80.30
2018-05-23T09:21:30.783Z,78.00
2018-05-23T09:23:58.298Z,75.80
2018-05-23T09:26:26.583Z,75.90
2018-05-23T09:28:54.846Z,77.30
2018-05-23T09:31:22.341Z,77.30
2018-05-23T09:33:49.850Z,76.30
2018-05-23T09:36:17.338Z,75.50
2018-05-23T09:38:44.840Z,73.40
2018-05-23T09:41:12.345Z,71.90
2018-05-23T09:43:39.901Z,74.90
2018-05-23T09:46:07.389Z,71.90
2018-05-23T09:48:34.876Z,71.20
2018-05-23T09:51:03.160Z,70.80
2018-05-23T09:53:31.422Z,67.90
2018-05-23T09:55:58.959Z,67.90
2018-05-23T09:58:26.456Z,69.10
2018-05-23T10:00:54.713Z,68.00
2018-05-23T10:03:23.076Z,67.20
2018-05-23T10:05:50.607Z,69.80
2018-05-23T10:08:18.861Z,71.80
2018-05-23T10:10:46.368Z,71.90
2018-05-23T10:13:13.900Z,65.40
2018-05-23T10:15:42.149Z,65.40
2018-05-23T10:18:09.654Z,65.40
2018-05-23T10:20:37.948Z,67.10
2018-05-23T10:23:05.460Z,66.90
2018-05-23T10:25:32.942Z,65.00
2018-05-23T10:28:00.452Z,68.70
2018-05-23T10:30:27.945Z,68.40
2018-05-23T10:32:55.464Z,71.30
2018-05-23T10:35:22.982Z,70.30
2018-05-23T10:37:50.488Z,69.40
2018-05-23T10:40:17.982Z,67.50
2018-05-23T10:42:45.494Z,66.60
2018-05-23T10:45:13.756Z,65.40
2018-05-23T10:47:41.234Z,65.30
2018-05-23T10:50:08.750Z,64.40
2018-05-23T10:52:36.256Z,65.00
2018-05-23T10:55:03.751Z,64.40
2018-05-23T10:57:31.252Z,70.00
2018-05-23T10:59:58.744Z,62.40
2018-05-23T11:02:26.247Z,66.30
2018-05-23T11:04:53.779Z,63.40
2018-05-23T11:07:22.029Z,63.90
2018-05-23T11:09:49.529Z,63.90
2018-05-23T11:12:17.819Z,67.30
2018-05-23T11:14:46.105Z,63.40
2018-05-23T11:17:13.613Z,63.30
2018-05-23T11:19:41.120Z,61.30
2018-05-23T11:22:09.387Z,60.20
2018-05-23T11:24:37.695Z,58.40
2018-05-23T11:27:05.207Z,58.30
2018-05-23T11:29:32.715Z,58.50
2018-05-23T11:32:00.251Z,58.40
2018-05-23T11:34:27.787Z,59.00
2018-05-23T11:36:55.323Z,56.90
2018-05-23T11:39:22.843Z,56.20
2018-05-23T11:41:50.331Z,56.80
2018-05-23T11:44:18.596Z,55.90
2018-05-23T11:46:46.881Z,57.50
2018-05-23T11:49:14.397Z,57.50
2018-05-23T11:51:41.881Z,56.20
2018-05-23T11:54:09.405Z,54.60
2018-05-23T11:56:36.925Z,59.40
2018-05-23T11:59:04.416Z,54.50
2018-05-23T12:01:31.927Z,54.20
2018-05-23T12:03:59.443Z,53.00
2018-05-23T12:06:26.939Z,51.70
2018-05-23T12:08:54.444Z,53.80
2018-05-23T12:11:22.727Z,55.70
2018-05-23T12:13:50.985Z,55.50
2018-05-23T12:16:18.486Z,55.50
2018-05-23T12:18:46.748Z,55.90
2018-05-23T12:21:14.233Z,55.90
2018-05-23T12:23:41.730Z,56.70
2018-05-23T12:26:09.270Z,53.10
2018-05-23T12:28:36.794Z,54.40
2018-05-23T12:31:04.301Z,51.50
2018-05-23T12:33:31.801Z,52.30
2018-05-23T12:35:59.294Z,49.80
2018-05-23T12:38:27.567Z,50.60
2018-05-23T12:40:55.079Z,50.60
2018-05-23T12:43:22.580Z,49.80
2018-05-23T12:45:50.085Z,49.60
2018-05-23T12:48:17.585Z,49.50
2018-05-23T12:50:45.079Z,49.40
2018-05-23T12:53:12.611Z,50.50
2018-05-23T12:55:40.183Z,51.20
2018-05-23T12:58:07.641Z,50.90
2018-05-23T13:00:35.157Z,50.40
2018-05-23T13:03:02.781Z,51.10
2018-05-23T13:05:30.271Z,50.40
2018-05-23T13:07:57.803Z,51.30
2018-05-23T13:10:25.323Z,52.70
2018-05-23T13:12:52.819Z,52.50
2018-05-23T13:15:20.315Z,52.30
2018-05-23T13:17:47.922Z,52.50
2018-05-23T13:20:15.367Z,52.70
2018-05-23T13:22:42.867Z,52.40
2018-05-23T13:25:10.401Z,51.30
2018-05-23T13:27:37.912Z,49.90
2018-05-23T13:30:05.411Z,50.30
2018-05-23T13:32:32.931Z,50.40
2018-05-23T13:35:00.439Z,51.20
2018-05-23T13:37:28.725Z,49.40
2018-05-23T13:39:57.001Z,50.40
2018-05-23T13:42:25.274Z,49.60
2018-05-23T13:44:53.550Z,47.60
2018-05-23T13:47:22.895Z,47.60
2018-05-23T13:49:50.379Z,47.70
2018-05-23T13:52:17.878Z,47.90
2018-05-23T13:54:45.372Z,48.00
2018-05-23T13:57:13.643Z,50.10
2018-05-23T13:59:41.161Z,50.10
2018-05-23T14:02:08.664Z,50.20
2018-05-23T14:04:36.941Z,51.80
2018-05-23T14:07:05.208Z,50.60
2018-05-23T14:09:33.485Z,50.50
2018-05-23T14:12:01.013Z,50.50
2018-05-23T14:14:28.506Z,48.70
2018-05-23T14:16:56.787Z,49.10
2018-05-23T14:19:24.376Z,49.20
2018-05-23T14:21:51.815Z,47.40
2018-05-23T14:24:19.330Z,46.30
2018-05-23T14:26:46.837Z,47.70
2018-05-23T14:29:14.338Z,47.40
2018-05-23T14:31:42.606Z,46.40
2018-05-23T14:34:10.110Z,46.40
2018-05-23T14:36:37.604Z,47.10
2018-05-23T14:39:05.899Z,46.70
2018-05-23T14:41:33.402Z,45.60
2018-05-23T14:44:00.908Z,46.20
2018-05-23T14:46:28.384Z,47.10
2018-05-23T14:48:55.909Z,47.30
2018-05-23T14:51:23.401Z,46.30
2018-05-23T14:53:50.905Z,44.10
2018-05-23T14:56:19.224Z,41.10
2018-05-23T14:58:46.707Z,41.40
2018-05-23T15:01:14.225Z,41.30
2018-05-23T15:03:41.734Z,40.40
2018-05-23T15:06:09.253Z,41.00
2018-05-23T15:08:36.861Z,42.30
2018-05-23T15:11:04.285Z,41.60
2018-05-23T15:13:31.801Z,40.80
2018-05-23T15:15:59.334Z,41.60
2018-05-23T15:18:26.854Z,41.60
2018-05-23T15:20:55.189Z,39.50
2018-05-23T15:23:22.682Z,39.40
2018-05-23T15:25:50.199Z,40.00
2018-05-23T15:28:17.728Z,40.30
2018-05-23T15:30:45.995Z,40.70
2018-05-23T15:33:13.517Z,40.70
2018-05-23T15:35:41.020Z,40.80
2018-05-23T15:38:08.520Z,40.10
2018-05-23T15:40:36.039Z,40.70
2018-05-23T15:43:03.576Z,41.00
2018-05-23T15:45:31.086Z,40.40
2018-05-23T15:47:59.359Z,42.40
2018-05-23T15:50:26.872Z,42.30
2018-05-23T15:52:54.396Z,42.80
2018-05-23T15:55:22.683Z,42.80
2018-05-23T15:57:50.191Z,42.80
2018-05-23T16:00:17.698Z,43.00
2018-05-23T16:02:45.988Z,44.20
2018-05-23T16:05:14.254Z,48.20
2018-05-23T16:07:41.779Z,48.10
2018-05-23T16:10:09.281Z,47.00
2018-05-23T16:12:37.547Z,49.50
2018-05-23T16:15:05.129Z,48.90
2018-05-23T16:17:32.546Z,49.30
2018-05-23T16:20:00.080Z,50.80
2018-05-23T16:22:27.598Z,51.90
2018-05-23T16:24:55.100Z,52.20
2018-05-23T16:27:22.627Z,54.10
2018-05-23T16:29:50.125Z,53.50
2018-05-23T16:32:18.418Z,54.90
2018-05-23T16:34:45.915Z,54.90
2018-05-23T16:37:13.412Z,54.70
2018-05-23T16:39:40.937Z,56.60
2018-05-23T16:42:08.427Z,54.90
2018-05-23T16:44:35.914Z,55.60
2018-05-23T16:47:04.202Z,58.30
2018-05-23T16:49:32.463Z,57.10
2018-05-23T16:52:00.052Z,57.00
2018-05-23T16:54:27.494Z,57.80
2018-05-23T16:56:54.987Z,57.40
2018-05-23T16:59:22.501Z,58.00
2018-05-23T17:01:50.013Z,59.20
2018-05-23T17:04:17.523Z,59.60
2018-05-23T17:06:45.007Z,61.10
2018-05-23T17:09:12.498Z,59.80
2018-05-23T17:11:40.021Z,59.90
2018-05-23T17:14:07.507Z,61.80
2018-05-23T17:16:35.791Z,59.40
2018-05-23T17:19:04.078Z,61.50
2018-05-23T17:21:32.331Z,60.00
2018-05-23T17:23:59.828Z,59.90
2018-05-23T17:26:28.104Z,63.20
2018-05-23T17:28:55.607Z,63.20
2018-05-23T17:31:23.126Z,61.80
2018-05-23T17:33:51.394Z,63.30
2018-05-23T17:36:19.661Z,63.50
2018-05-23T17:38:47.174Z,63.50
2018-05-23T17:41:14.661Z,63.60
2018-05-23T17:43:42.148Z,65.10
2018-05-23T17:46:09.656Z,63.50
2018-05-23T17:48:37.164Z,64.20
2018-05-23T17:51:04.650Z,64.40
2018-05-23T17:53:32.148Z,64.70
2018-05-23T17:55:59.652Z,65.30
2018-05-23T17:58:27.156Z,66.30
2018-05-23T18:00:55.424Z,66.40
2018-05-23T18:03:23.716Z,67.00
2018-05-23T18:05:51.990Z,66.40
2018-05-23T18:08:19.506Z,66.30
2018-05-23T18:10:47.006Z,65.30
2018-05-23T18:13:14.529Z,64.80
2018-05-23T18:15:42.034Z,66.20
2018-05-23T18:18:10.314Z,66.90
2018-05-23T18:20:38.601Z,66.60
2018-05-23T18:23:06.110Z,66.50
2018-05-23T18:25:33.601Z,67.20
2018-05-23T18:28:01.120Z,67.30
2018-05-23T18:30:28.639Z,67.80
2018-05-23T18:32:56.169Z,68.60
2018-05-23T18:35:23.686Z,68.60
2018-05-23T18:37:51.960Z,69.10
2018-05-23T18:40:19.463Z,69.10
2018-05-23T18:42:47.732Z,69.90
2018-05-23T18:45:15.256Z,70.30
2018-05-23T18:47:42.771Z,70.50
2018-05-23T18:50:10.281Z,70.80
2018-05-23T18:52:37.777Z,70.50
2018-05-23T18:55:06.074Z,70.70
2018-05-23T18:57:33.583Z,70.70
2018-05-23T19:00:01.094Z,70.90
2018-05-23T19:02:28.621Z,72.00
2018-05-23T19:04:56.139Z,72.80
2018-05-23T19:07:23.633Z,73.20
2018-05-23T19:09:51.172Z,73.00
2018-05-23T19:12:18.660Z,72.90
2018-05-23T19:14:46.162Z,72.10
2018-05-23T19:17:14.434Z,72.40
2018-05-23T19:19:42.705Z,72.90
2018-05-23T19:22:10.224Z,72.90
2018-05-23T19:24:37.743Z,73.40
2018-05-23T19:27:05.240Z,73.50
2018-05-23T19:29:32.746Z,73.30
2018-05-23T19:32:00.253Z,74.40
2018-05-23T19:34:27.752Z,74.10
2018-05-23T19:36:55.286Z,73.40
2018-05-23T19:39:22.784Z,73.00
2018-05-23T19:41:50.335Z,74.20
2018-05-23T19:44:17.850Z,73.30
2018-05-23T19:46:46.146Z,73.90
2018-05-23T19:49:13.636Z,73.90
2018-05-23T19:51:41.137Z,74.40
2018-05-23T19:54:08.640Z,75.80
2018-05-23T19:56:36.153Z,75.80
2018-05-23T19:59:03.661Z,75.60
2018-05-23T20:01:31.157Z,75.60
2018-05-23T20:03:58.682Z,76.00
2018-05-23T20:06:27.082Z,76.30
2018-05-23T20:08:54.599Z,76.50
2018-05-23T20:11:22.131Z,77.10
2018-05-23T20:13:49.622Z,77.20
2018-05-23T20:16:17.121Z,77.00
2018-05-23T20:18:45.383Z,77.40
2018-05-23T20:21:12.879Z,77.30
2018-05-23T20:23:40.383Z,77.90
2018-05-23T20:26:07.881Z,78.60
2018-05-23T20:28:35.379Z,78.60
2018-05-23T20:31:02.885Z,78.30
2018-05-23T20:33:30.380Z,78.20
2018-05-23T20:35:58.655Z,78.60
2018-05-23T20:38:26.163Z,78.60
2018-05-23T20:40:53.694Z,78.10
2018-05-23T20:43:22.037Z,78.00
2018-05-23T20:45:49.560Z,78.00
2018-05-23T20:48:17.067Z,79.00
2018-05-23T20:50:44.571Z,78.70
2018-05-23T20:53:12.092Z,79.50
2018-05-23T20:55:39.590Z,79.90
2018-05-23T20:58:07.843Z,80.70
2018-05-23T21:00:35.340Z,80.60
2018-05-23T21:03:02.853Z,79.60
2018-05-23T21:05:30.363Z,79.70
2018-05-23T21:07:58.630Z,78.70
2018-05-23T21:10:26.880Z,79.20
2018-05-23T21:12:54.393Z,79.20
2018-05-23T21:15:21.931Z,79.40
2018-05-23T21:17:49.414Z,80.10
2018-05-23T21:20:16.917Z,79.30
2018-05-23T21:22:44.408Z,78.60
2018-05-23T21:25:11.944Z,78.50
2018-05-23T21:27:39.438Z,78.80
2018-05-23T21:30:06.928Z,78.60
2018-05-23T21:32:34.442Z,77.80
2018-05-23T21:35:01.933Z,77.70
2018-05-23T21:37:29.423Z,77.30
2018-05-23T21:39:56.948Z,77.50
2018-05-23T21:42:24.456Z,77.40
2018-05-23T21:44:51.953Z,77.60
2018-05-23T21:47:19.452Z,78.20
2018-05-23T21:49:46.951Z,77.80
2018-05-23T21:52:14.455Z,77.70
2018-05-23T21:54:41.957Z,78.60
2018-05-23T21:57:09.444Z,78.60
2018-05-23T21:59:37.695Z,78.60
2018-05-23T22:02:05.198Z,78.60
2018-05-23T22:04:32.673Z,79.20
2018-05-23T22:07:00.163Z,78.80
2018-05-23T22:09:27.673Z,79.40
2018-05-23T22:11:55.154Z,78.50
2018-05-23T22:14:22.649Z,78.10
2018-05-23T22:16:50.157Z,78.00
2018-05-23T22:19:17.649Z,77.30
2018-05-23T22:21:45.145Z,77.80
2018-05-23T22:24:12.633Z,78.20
2018-05-23T22:26:40.905Z,78.30
2018-05-23T22:29:09.166Z,78.10
2018-05-23T22:31:36.647Z,78.00
2018-05-23T22:34:04.928Z,78.80
2018-05-23T22:36:32.432Z,78.80
2018-05-23T22:38:59.945Z,78.80
2018-05-23T22:41:27.448Z,79.00
2018-05-23T22:43:54.940Z,79.20
2018-05-23T22:46:22.453Z,79.10
2018-05-23T22:48:50.717Z,79.10
2018-05-23T22:51:18.224Z,79.10
2018-05-23T22:53:45.723Z,79.70
2018-05-23T22:56:13.230Z,79.70
2018-05-23T22:58:40.738Z,79.80
2018-05-23T23:01:08.222Z,80.60
2018-05-23T23:03:35.727Z,80.80
2018-05-23T23:06:03.232Z,81.00
2018-05-23T23:08:30.726Z,80.90
2018-05-23T23:10:59.011Z,81.10
2018-05-23T23:13:27.276Z,81.00
2018-05-23T23:15:54.776Z,80.90
2018-05-23T23:18:22.293Z,81.10
2018-05-23T23:20:49.803Z,80.90
2018-05-23T23:23:17.289Z,80.80
2018-05-23T23:25:44.800Z,81.70
2018-05-23T23:28:12.283Z,82.10
2018-05-23T23:30:40.539Z,81.90
2018-05-23T23:33:08.045Z,81.90
2018-05-23T23:35:35.531Z,81.70
2018-05-23T23:38:03.017Z,81.40
2018-05-23T23:40:30.525Z,82.10
2018-05-23T23:42:58.023Z,82.30
2018-05-23T23:45:25.523Z,81.40
2018-05-23T23:47:53.028Z,81.20
2018-05-23T23:50:21.277Z,80.30
2018-05-23T23:52:49.537Z,80.80
2018-05-23T23:55:17.105Z,80.70
2018-05-23T23:57:45.303Z,81.70
